sensor_id;sensor_type;location;lat;lon;timestamp;temperature;humidity
30063;DHT22;16889;67.864;24.990;2023-01-20T00:03:10;-2.30;99.90
30063;DHT22;16889;67.864;24.990;2023-01-20T00:07:56;-2.20;99.90
30063;DHT22;16889;67.864;24.990;2023-01-20T00:12:42;-2.20;99.90
30063;DHT22;16889;67.864;24.990;2023-01-20T00:17:28;-2.20;99.90
30063;DHT22;16889;67.864;24.990;2023-01-20T00:22:14;-2.30;99.90
30063;DHT22;16889;67.864;24.990;2023-01-20T00:27:00;-2.30;99.90
30063;DHT22;16889;67.864;24.990;2023-01-20T00:31:45;-2.20;99.90
30063;DHT22;16889;67.864;24.990;2023-01-20T00:36:32;-2.30;99.90
30063;DHT22;16889;67.864;24.990;2023-01-20T00:41:18;-2.30;99.90
30063;DHT22;16889;67.864;24.990;2023-01-20T00:46:05;-2.30;99.90
30063;DHT22;16889;67.864;24.990;2023-01-20T00:50:51;-2.30;99.90
30063;DHT22;16889;67.864;24.990;2023-01-20T00:55:37;-2.30;99.90
30063;DHT22;16889;67.864;24.990;2023-01-20T01:00:23;-2.20;99.90
30063;DHT22;16889;67.864;24.990;2023-01-20T01:05:09;-2.20;99.90
30063;DHT22;16889;67.864;24.990;2023-01-20T01:09:55;-2.20;99.90
30063;DHT22;16889;67.864;24.990;2023-01-20T01:14:41;-2.20;99.90
30063;DHT22;16889;67.864;24.990;2023-01-20T01:19:27;-2.10;99.90
30063;DHT22;16889;67.864;24.990;2023-01-20T01:24:13;-2.10;99.90
30063;DHT22;16889;67.864;24.990;2023-01-20T01:28:59;-2.30;99.90
30063;DHT22;16889;67.864;24.990;2023-01-20T01:33:45;-2.20;99.90
30063;DHT22;16889;67.864;24.990;2023-01-20T01:38:30;-2.10;99.90
30063;DHT22;16889;67.864;24.990;2023-01-20T01:43:26;-2.10;99.90
30063;DHT22;16889;67.864;24.990;2023-01-20T01:48:13;-2.10;99.90
30063;DHT22;16889;67.864;24.990;2023-01-20T01:52:59;-2.30;99.90
30063;DHT22;16889;67.864;24.990;2023-01-20T01:57:46;-2.30;99.90
30063;DHT22;16889;67.864;24.990;2023-01-20T02:02:33;-2.20;99.90
30063;DHT22;16889;67.864;24.990;2023-01-20T02:07:21;-2.20;99.90
30063;DHT22;16889;67.864;24.990;2023-01-20T02:12:11;-2.20;99.90
30063;DHT22;16889;67.864;24.990;2023-01-20T02:17:18;-2.20;99.90
30063;DHT22;16889;67.864;24.990;2023-01-20T02:22:49;-2.10;99.90
30063;DHT22;16889;67.864;24.990;2023-01-20T02:32:46;-2.10;99.90
30063;DHT22;16889;67.864;24.990;2023-01-20T02:48:26;-2.10;99.90
30063;DHT22;16889;67.864;24.990;2023-01-20T02:53:16;-2.10;99.90
30063;DHT22;16889;67.864;24.990;2023-01-20T02:58:10;-2.00;99.90
30063;DHT22;16889;67.864;24.990;2023-01-20T03:02:58;-2.00;99.90
30063;DHT22;16889;67.864;24.990;2023-01-20T03:07:45;-1.90;99.90
30063;DHT22;16889;67.864;24.990;2023-01-20T03:13:02;-2.00;99.90
30063;DHT22;16889;67.864;24.990;2023-01-20T03:17:45;-2.00;99.90
30063;DHT22;16889;67.864;24.990;2023-01-20T03:22:35;-2.00;99.90
30063;DHT22;16889;67.864;24.990;2023-01-20T03:27:21;-2.00;99.90
30063;DHT22;16889;67.864;24.990;2023-01-20T03:32:08;-2.00;99.90
30063;DHT22;16889;67.864;24.990;2023-01-20T03:36:55;-2.00;99.90
30063;DHT22;16889;67.864;24.990;2023-01-20T03:42:14;-2.10;99.90
30063;DHT22;16889;67.864;24.990;2023-01-20T03:52:30;-2.10;99.90
30063;DHT22;16889;67.864;24.990;2023-01-20T03:57:21;-2.20;99.90
30063;DHT22;16889;67.864;24.990;2023-01-20T04:02:08;-2.20;99.90
30063;DHT22;16889;67.864;24.990;2023-01-20T04:06:55;-2.30;99.90
30063;DHT22;16889;67.864;24.990;2023-01-20T04:11:41;-2.30;99.90
30063;DHT22;16889;67.864;24.990;2023-01-20T04:16:27;-2.30;99.90
30063;DHT22;16889;67.864;24.990;2023-01-20T04:22:08;-2.20;99.90
30063;DHT22;16889;67.864;24.990;2023-01-20T04:26:45;-2.20;99.90
30063;DHT22;16889;67.864;24.990;2023-01-20T04:31:31;-2.10;99.90
30063;DHT22;16889;67.864;24.990;2023-01-20T04:36:17;-2.20;99.90
30063;DHT22;16889;67.864;24.990;2023-01-20T04:41:03;-2.20;99.90
30063;DHT22;16889;67.864;24.990;2023-01-20T04:45:49;-2.20;99.90
30063;DHT22;16889;67.864;24.990;2023-01-20T04:50:39;-2.20;99.90
30063;DHT22;16889;67.864;24.990;2023-01-20T04:55:25;-2.20;99.90
30063;DHT22;16889;67.864;24.990;2023-01-20T05:00:12;-2.30;99.90
30063;DHT22;16889;67.864;24.990;2023-01-20T05:05:04;-2.30;99.90
30063;DHT22;16889;67.864;24.990;2023-01-20T05:09:50;-2.30;99.90
30063;DHT22;16889;67.864;24.990;2023-01-20T05:14:36;-2.50;99.90
30063;DHT22;16889;67.864;24.990;2023-01-20T05:19:22;-2.50;99.90
30063;DHT22;16889;67.864;24.990;2023-01-20T05:24:09;-2.40;99.90
30063;DHT22;16889;67.864;24.990;2023-01-20T05:28:55;-2.50;99.90
30063;DHT22;16889;67.864;24.990;2023-01-20T05:33:41;-2.60;99.90
30063;DHT22;16889;67.864;24.990;2023-01-20T05:38:27;-2.60;99.90
30063;DHT22;16889;67.864;24.990;2023-01-20T05:43:13;-2.60;99.90
30063;DHT22;16889;67.864;24.990;2023-01-20T05:47:59;-2.70;99.90
30063;DHT22;16889;67.864;24.990;2023-01-20T05:52:45;-2.70;99.90
30063;DHT22;16889;67.864;24.990;2023-01-20T05:57:47;-2.70;99.90
30063;DHT22;16889;67.864;24.990;2023-01-20T06:02:33;-3.00;99.90
30063;DHT22;16889;67.864;24.990;2023-01-20T06:07:19;-2.90;99.90
30063;DHT22;16889;67.864;24.990;2023-01-20T06:12:05;-2.90;99.90
30063;DHT22;16889;67.864;24.990;2023-01-20T06:16:51;-2.90;99.90
30063;DHT22;16889;67.864;24.990;2023-01-20T06:21:37;-2.80;99.90
30063;DHT22;16889;67.864;24.990;2023-01-20T06:26:23;-2.80;99.90
30063;DHT22;16889;67.864;24.990;2023-01-20T06:31:14;-2.90;99.90
30063;DHT22;16889;67.864;24.990;2023-01-20T06:36:01;-2.90;99.90
30063;DHT22;16889;67.864;24.990;2023-01-20T06:40:47;-2.90;99.90
30063;DHT22;16889;67.864;24.990;2023-01-20T06:45:33;-2.80;99.90
30063;DHT22;16889;67.864;24.990;2023-01-20T06:50:19;-2.80;99.90
30063;DHT22;16889;67.864;24.990;2023-01-20T06:55:05;-2.90;99.90
30063;DHT22;16889;67.864;24.990;2023-01-20T06:59:51;-2.90;99.90
30063;DHT22;16889;67.864;24.990;2023-01-20T07:04:37;-3.10;99.90
30063;DHT22;16889;67.864;24.990;2023-01-20T07:09:23;-3.10;99.90
30063;DHT22;16889;67.864;24.990;2023-01-20T07:14:09;-3.10;99.90
30063;DHT22;16889;67.864;24.990;2023-01-20T07:18:55;-3.20;99.90
30063;DHT22;16889;67.864;24.990;2023-01-20T07:23:41;-3.40;99.90
30063;DHT22;16889;67.864;24.990;2023-01-20T07:28:27;-3.60;99.90
30063;DHT22;16889;67.864;24.990;2023-01-20T07:33:14;-3.50;99.90
30063;DHT22;16889;67.864;24.990;2023-01-20T07:38:00;-3.40;99.90
30063;DHT22;16889;67.864;24.990;2023-01-20T07:42:46;-3.30;99.90
30063;DHT22;16889;67.864;24.990;2023-01-20T07:47:32;-3.30;99.90
30063;DHT22;16889;67.864;24.990;2023-01-20T07:52:18;-3.30;99.90
30063;DHT22;16889;67.864;24.990;2023-01-20T07:57:04;-3.40;99.90
30063;DHT22;16889;67.864;24.990;2023-01-20T08:01:49;-3.40;99.90
30063;DHT22;16889;67.864;24.990;2023-01-20T08:06:35;-3.30;99.90
30063;DHT22;16889;67.864;24.990;2023-01-20T08:11:21;-3.30;99.90
30063;DHT22;16889;67.864;24.990;2023-01-20T08:16:10;-3.40;99.90
30063;DHT22;16889;67.864;24.990;2023-01-20T08:20:56;-3.40;99.90
30063;DHT22;16889;67.864;24.990;2023-01-20T08:25:42;-3.50;99.90
30063;DHT22;16889;67.864;24.990;2023-01-20T08:30:28;-3.50;99.90
30063;DHT22;16889;67.864;24.990;2023-01-20T08:35:14;-3.50;99.90
30063;DHT22;16889;67.864;24.990;2023-01-20T08:40:00;-3.40;99.90
30063;DHT22;16889;67.864;24.990;2023-01-20T08:44:51;-3.40;99.90
30063;DHT22;16889;67.864;24.990;2023-01-20T08:49:37;-3.40;99.90
30063;DHT22;16889;67.864;24.990;2023-01-20T08:54:23;-3.30;99.90
30063;DHT22;16889;67.864;24.990;2023-01-20T08:59:09;-3.20;99.90
30063;DHT22;16889;67.864;24.990;2023-01-20T09:03:56;-3.10;99.90
30063;DHT22;16889;67.864;24.990;2023-01-20T09:08:42;-3.10;99.90
30063;DHT22;16889;67.864;24.990;2023-01-20T09:13:28;-3.00;99.90
30063;DHT22;16889;67.864;24.990;2023-01-20T09:18:14;-3.00;99.90
30063;DHT22;16889;67.864;24.990;2023-01-20T09:23:01;-3.10;99.90
30063;DHT22;16889;67.864;24.990;2023-01-20T09:27:47;-3.00;99.90
30063;DHT22;16889;67.864;24.990;2023-01-20T09:32:33;-2.90;99.90
30063;DHT22;16889;67.864;24.990;2023-01-20T09:37:19;-2.90;99.90
30063;DHT22;16889;67.864;24.990;2023-01-20T09:53:49;-2.90;99.90
30063;DHT22;16889;67.864;24.990;2023-01-20T09:59:00;-2.80;99.90
30063;DHT22;16889;67.864;24.990;2023-01-20T10:04:06;-2.80;99.90
30063;DHT22;16889;67.864;24.990;2023-01-20T10:09:04;-2.90;99.90
30063;DHT22;16889;67.864;24.990;2023-01-20T10:14:12;-2.80;99.90
30063;DHT22;16889;67.864;24.990;2023-01-20T10:24:29;-2.70;99.90
30063;DHT22;16889;67.864;24.990;2023-01-20T10:29:44;-2.80;99.90
30063;DHT22;16889;67.864;24.990;2023-01-20T10:34:38;-2.90;99.90
30063;DHT22;16889;67.864;24.990;2023-01-20T10:44:34;-2.80;99.90
30063;DHT22;16889;67.864;24.990;2023-01-20T10:59:23;-2.70;99.90
30063;DHT22;16889;67.864;24.990;2023-01-20T11:04:19;-2.70;99.90
30063;DHT22;16889;67.864;24.990;2023-01-20T11:09:30;-2.70;99.90
30063;DHT22;16889;67.864;24.990;2023-01-20T11:14:18;-2.80;99.90
30063;DHT22;16889;67.864;24.990;2023-01-20T11:19:05;-2.80;99.90
30063;DHT22;16889;67.864;24.990;2023-01-20T11:23:53;-2.80;99.90
30063;DHT22;16889;67.864;24.990;2023-01-20T11:28:52;-2.80;99.90
30063;DHT22;16889;67.864;24.990;2023-01-20T11:33:38;-2.70;99.90
30063;DHT22;16889;67.864;24.990;2023-01-20T11:38:28;-2.70;99.90
30063;DHT22;16889;67.864;24.990;2023-01-20T11:43:30;-2.70;99.90
30063;DHT22;16889;67.864;24.990;2023-01-20T11:48:18;-2.80;99.90
30063;DHT22;16889;67.864;24.990;2023-01-20T11:53:19;-3.00;99.90
30063;DHT22;16889;67.864;24.990;2023-01-20T11:58:17;-2.90;99.90
30063;DHT22;16889;67.864;24.990;2023-01-20T12:07:57;-3.00;99.90
30063;DHT22;16889;67.864;24.990;2023-01-20T12:17:58;-3.00;99.90
30063;DHT22;16889;67.864;24.990;2023-01-20T12:23:00;-3.00;99.90
30063;DHT22;16889;67.864;24.990;2023-01-20T12:28:02;-3.00;99.90
30063;DHT22;16889;67.864;24.990;2023-01-20T12:32:49;-2.90;99.90
30063;DHT22;16889;67.864;24.990;2023-01-20T12:37:54;-2.90;99.90
30063;DHT22;16889;67.864;24.990;2023-01-20T12:58:36;-3.30;99.90
30063;DHT22;16889;67.864;24.990;2023-01-20T13:08:55;-3.40;99.90
30063;DHT22;16889;67.864;24.990;2023-01-20T13:18:59;-3.50;99.90
30063;DHT22;16889;67.864;24.990;2023-01-20T13:23:49;-3.50;99.90
30063;DHT22;16889;67.864;24.990;2023-01-20T13:28:36;-3.40;99.90
30063;DHT22;16889;67.864;24.990;2023-01-20T13:33:39;-3.40;99.90
30063;DHT22;16889;67.864;24.990;2023-01-20T13:38:28;-3.40;99.90
30063;DHT22;16889;67.864;24.990;2023-01-20T13:53:23;-3.40;99.90
30063;DHT22;16889;67.864;24.990;2023-01-20T14:08:16;-3.50;99.90
30063;DHT22;16889;67.864;24.990;2023-01-20T14:13:08;-3.60;99.90
30063;DHT22;16889;67.864;24.990;2023-01-20T14:17:55;-3.60;99.90
30063;DHT22;16889;67.864;24.990;2023-01-20T14:22:42;-3.50;99.90
30063;DHT22;16889;67.864;24.990;2023-01-20T14:27:30;-3.50;99.90
30063;DHT22;16889;67.864;24.990;2023-01-20T14:32:32;-3.60;99.90
30063;DHT22;16889;67.864;24.990;2023-01-20T14:37:31;-3.70;99.90
30063;DHT22;16889;67.864;24.990;2023-01-20T14:42:20;-3.70;99.90
30063;DHT22;16889;67.864;24.990;2023-01-20T14:47:08;-3.80;99.90
30063;DHT22;16889;67.864;24.990;2023-01-20T14:51:54;-3.70;99.90
30063;DHT22;16889;67.864;24.990;2023-01-20T14:56:46;-3.90;99.90
30063;DHT22;16889;67.864;24.990;2023-01-20T15:01:32;-3.80;99.90
30063;DHT22;16889;67.864;24.990;2023-01-20T15:06:20;-4.10;99.90
30063;DHT22;16889;67.864;24.990;2023-01-20T15:16:15;-3.80;99.90
30063;DHT22;16889;67.864;24.990;2023-01-20T15:26:08;-3.90;99.90
30063;DHT22;16889;67.864;24.990;2023-01-20T15:30:56;-4.00;99.90
30063;DHT22;16889;67.864;24.990;2023-01-20T15:35:42;-4.10;99.90
30063;DHT22;16889;67.864;24.990;2023-01-20T15:40:28;-4.00;99.90
30063;DHT22;16889;67.864;24.990;2023-01-20T15:45:15;-3.90;99.90
30063;DHT22;16889;67.864;24.990;2023-01-20T15:50:01;-3.90;99.90
30063;DHT22;16889;67.864;24.990;2023-01-20T15:54:47;-3.80;99.90
30063;DHT22;16889;67.864;24.990;2023-01-20T15:59:33;-4.00;99.90
30063;DHT22;16889;67.864;24.990;2023-01-20T16:04:19;-4.00;99.90
30063;DHT22;16889;67.864;24.990;2023-01-20T16:09:34;-4.10;99.90
30063;DHT22;16889;67.864;24.990;2023-01-20T16:14:23;-4.10;99.90
30063;DHT22;16889;67.864;24.990;2023-01-20T16:19:12;-4.20;99.90
30063;DHT22;16889;67.864;24.990;2023-01-20T16:23:58;-4.00;99.90
30063;DHT22;16889;67.864;24.990;2023-01-20T16:28:43;-4.10;99.90
30063;DHT22;16889;67.864;24.990;2023-01-20T16:33:29;-4.10;99.90
30063;DHT22;16889;67.864;24.990;2023-01-20T16:38:17;-4.00;99.90
30063;DHT22;16889;67.864;24.990;2023-01-20T16:43:03;-3.90;99.90
30063;DHT22;16889;67.864;24.990;2023-01-20T16:47:50;-3.80;99.90
30063;DHT22;16889;67.864;24.990;2023-01-20T16:52:36;-3.80;99.90
30063;DHT22;16889;67.864;24.990;2023-01-20T16:57:21;-3.80;99.90
30063;DHT22;16889;67.864;24.990;2023-01-20T17:02:08;-4.00;99.90
30063;DHT22;16889;67.864;24.990;2023-01-20T17:06:55;-4.00;99.90
30063;DHT22;16889;67.864;24.990;2023-01-20T17:11:41;-3.90;99.90
30063;DHT22;16889;67.864;24.990;2023-01-20T17:16:27;-3.80;99.90
30063;DHT22;16889;67.864;24.990;2023-01-20T17:21:14;-3.80;99.90
30063;DHT22;16889;67.864;24.990;2023-01-20T17:26:04;-3.80;99.90
30063;DHT22;16889;67.864;24.990;2023-01-20T17:30:51;-3.80;99.90
30063;DHT22;16889;67.864;24.990;2023-01-20T17:35:37;-3.80;99.90
30063;DHT22;16889;67.864;24.990;2023-01-20T17:40:23;-3.80;99.90
30063;DHT22;16889;67.864;24.990;2023-01-20T17:45:09;-3.80;99.90
30063;DHT22;16889;67.864;24.990;2023-01-20T17:49:55;-3.90;99.90
30063;DHT22;16889;67.864;24.990;2023-01-20T17:54:41;-4.00;99.90
30063;DHT22;16889;67.864;24.990;2023-01-20T17:59:27;-4.00;99.90
30063;DHT22;16889;67.864;24.990;2023-01-20T18:04:13;-4.00;99.90
30063;DHT22;16889;67.864;24.990;2023-01-20T18:08:59;-4.00;99.90
30063;DHT22;16889;67.864;24.990;2023-01-20T18:13:47;-3.90;99.90
30063;DHT22;16889;67.864;24.990;2023-01-20T18:18:33;-4.00;99.90
30063;DHT22;16889;67.864;24.990;2023-01-20T18:23:19;-4.00;99.90
30063;DHT22;16889;67.864;24.990;2023-01-20T18:28:05;-4.20;99.90
30063;DHT22;16889;67.864;24.990;2023-01-20T18:32:51;-4.10;99.90
30063;DHT22;16889;67.864;24.990;2023-01-20T18:37:37;-4.30;99.90
30063;DHT22;16889;67.864;24.990;2023-01-20T18:42:23;-4.20;99.90
30063;DHT22;16889;67.864;24.990;2023-01-20T18:47:08;-4.30;99.90
30063;DHT22;16889;67.864;24.990;2023-01-20T18:51:55;-4.40;99.90
30063;DHT22;16889;67.864;24.990;2023-01-20T18:56:41;-4.30;99.90
30063;DHT22;16889;67.864;24.990;2023-01-20T19:01:29;-4.20;99.90
30063;DHT22;16889;67.864;24.990;2023-01-20T19:06:23;-4.10;99.90
30063;DHT22;16889;67.864;24.990;2023-01-20T19:11:21;-4.20;99.90
30063;DHT22;16889;67.864;24.990;2023-01-20T19:16:08;-4.30;99.90
30063;DHT22;16889;67.864;24.990;2023-01-20T19:20:55;-4.20;99.90
30063;DHT22;16889;67.864;24.990;2023-01-20T19:25:41;-4.20;99.90
30063;DHT22;16889;67.864;24.990;2023-01-20T19:30:26;-4.20;99.90
30063;DHT22;16889;67.864;24.990;2023-01-20T19:35:13;-4.30;99.90
30063;DHT22;16889;67.864;24.990;2023-01-20T19:39:59;-4.20;99.90
30063;DHT22;16889;67.864;24.990;2023-01-20T19:44:45;-4.20;99.90
30063;DHT22;16889;67.864;24.990;2023-01-20T19:49:31;-4.20;99.90
30063;DHT22;16889;67.864;24.990;2023-01-20T19:54:17;-4.30;99.90
30063;DHT22;16889;67.864;24.990;2023-01-20T19:59:03;-4.40;99.90
30063;DHT22;16889;67.864;24.990;2023-01-20T20:03:51;-4.50;99.90
30063;DHT22;16889;67.864;24.990;2023-01-20T20:08:38;-4.70;99.90
30063;DHT22;16889;67.864;24.990;2023-01-20T20:13:24;-4.70;99.90
30063;DHT22;16889;67.864;24.990;2023-01-20T20:18:10;-4.60;99.90
30063;DHT22;16889;67.864;24.990;2023-01-20T20:22:56;-4.40;99.90
30063;DHT22;16889;67.864;24.990;2023-01-20T20:27:42;-4.50;99.90
30063;DHT22;16889;67.864;24.990;2023-01-20T20:32:28;-4.40;99.90
30063;DHT22;16889;67.864;24.990;2023-01-20T20:37:14;-4.30;99.90
30063;DHT22;16889;67.864;24.990;2023-01-20T20:42:00;-4.50;99.90
30063;DHT22;16889;67.864;24.990;2023-01-20T20:46:46;-4.80;99.90
30063;DHT22;16889;67.864;24.990;2023-01-20T20:51:33;-4.70;99.90
30063;DHT22;16889;67.864;24.990;2023-01-20T20:56:20;-4.80;99.90
30063;DHT22;16889;67.864;24.990;2023-01-20T21:01:10;-5.00;99.90
30063;DHT22;16889;67.864;24.990;2023-01-20T21:05:57;-5.10;99.90
30063;DHT22;16889;67.864;24.990;2023-01-20T21:10:43;-5.10;99.90
30063;DHT22;16889;67.864;24.990;2023-01-20T21:15:29;-5.00;99.90
30063;DHT22;16889;67.864;24.990;2023-01-20T21:20:15;-4.80;99.90
30063;DHT22;16889;67.864;24.990;2023-01-20T21:25:01;-4.80;99.90
30063;DHT22;16889;67.864;24.990;2023-01-20T21:29:47;-4.90;99.90
30063;DHT22;16889;67.864;24.990;2023-01-20T21:34:33;-5.00;99.90
30063;DHT22;16889;67.864;24.990;2023-01-20T21:39:19;-5.00;99.90
30063;DHT22;16889;67.864;24.990;2023-01-20T21:44:12;-5.20;99.90
30063;DHT22;16889;67.864;24.990;2023-01-20T21:49:14;-5.40;99.90
30063;DHT22;16889;67.864;24.990;2023-01-20T21:54:19;-5.50;99.90
30063;DHT22;16889;67.864;24.990;2023-01-20T21:59:05;-5.50;99.90
30063;DHT22;16889;67.864;24.990;2023-01-20T22:03:52;-5.60;99.90
30063;DHT22;16889;67.864;24.990;2023-01-20T22:08:38;-5.50;99.90
30063;DHT22;16889;67.864;24.990;2023-01-20T22:13:24;-5.60;99.90
30063;DHT22;16889;67.864;24.990;2023-01-20T22:18:10;-5.60;99.90
30063;DHT22;16889;67.864;24.990;2023-01-20T22:22:56;-5.60;99.90
30063;DHT22;16889;67.864;24.990;2023-01-20T22:27:42;-5.60;99.90
30063;DHT22;16889;67.864;24.990;2023-01-20T22:32:28;-5.60;99.90
30063;DHT22;16889;67.864;24.990;2023-01-20T22:37:14;-5.50;99.90
30063;DHT22;16889;67.864;24.990;2023-01-20T22:42:00;-5.50;99.90
30063;DHT22;16889;67.864;24.990;2023-01-20T22:46:46;-5.60;99.90
30063;DHT22;16889;67.864;24.990;2023-01-20T22:51:32;-5.50;99.90
30063;DHT22;16889;67.864;24.990;2023-01-20T22:56:21;-5.50;99.90
30063;DHT22;16889;67.864;24.990;2023-01-20T23:01:22;-5.70;99.90
30063;DHT22;16889;67.864;24.990;2023-01-20T23:06:09;-5.80;99.90
30063;DHT22;16889;67.864;24.990;2023-01-20T23:11:07;-5.80;99.90
30063;DHT22;16889;67.864;24.990;2023-01-20T23:15:54;-5.90;99.90
30063;DHT22;16889;67.864;24.990;2023-01-20T23:20:40;-5.80;99.90
30063;DHT22;16889;67.864;24.990;2023-01-20T23:25:26;-5.80;99.90
30063;DHT22;16889;67.864;24.990;2023-01-20T23:30:12;-5.90;99.90
30063;DHT22;16889;67.864;24.990;2023-01-20T23:34:58;-5.90;99.90
30063;DHT22;16889;67.864;24.990;2023-01-20T23:39:44;-5.80;99.90
30063;DHT22;16889;67.864;24.990;2023-01-20T23:44:30;-5.80;99.90
30063;DHT22;16889;67.864;24.990;2023-01-20T23:49:15;-5.80;99.90
30063;DHT22;16889;67.864;24.990;2023-01-20T23:54:01;-5.70;99.90
30063;DHT22;16889;67.864;24.990;2023-01-20T23:58:49;-5.60;99.90
